createdAt,value
2022-10-09T00:02:19.678Z,83.7
2022-10-09T00:08:02.862Z,83.2
2022-10-09T00:13:02.937Z,84.4
2022-10-09T00:18:13.293Z,80.9
2022-10-09T00:24:02.834Z,80.5
2022-10-09T00:29:02.886Z,84.4
2022-10-09T00:34:02.848Z,83.9
2022-10-09T00:39:02.868Z,84
2022-10-09T00:44:02.910Z,83.9
2022-10-09T00:49:02.968Z,84.2
2022-10-09T00:54:13.145Z,84.2
2022-10-09T00:59:13.149Z,84.9
2022-10-09T01:04:13.178Z,84.9
2022-10-09T01:09:13.215Z,84
2022-10-09T01:15:02.902Z,83.7
2022-10-09T01:20:13.162Z,82.5
2022-10-09T01:25:13.195Z,83.2
2022-10-09T01:31:02.935Z,84.2
2022-10-09T01:36:02.905Z,84
2022-10-09T01:41:13.188Z,85.1
2022-10-09T01:47:02.840Z,85.1
2022-10-09T01:52:02.879Z,84.1
2022-10-09T01:57:02.981Z,82.5
2022-10-09T02:02:21.768Z,84.4
2022-10-09T02:08:02.856Z,85.5
2022-10-09T02:13:02.917Z,85.7
2022-10-09T02:18:13.119Z,84
2022-10-09T02:24:02.989Z,83.9
2022-10-09T02:29:02.894Z,83.6
2022-10-09T02:34:13.094Z,84.2
2022-10-09T02:40:06.980Z,83
2022-10-09T02:45:02.981Z,83.4
2022-10-09T02:50:13.149Z,84.2
2022-10-09T02:56:02.838Z,84.3
2022-10-09T03:01:02.862Z,84
2022-10-09T03:06:13.157Z,84.3
2022-10-09T03:12:02.869Z,84.4
2022-10-09T03:17:13.181Z,84.9
2022-10-09T03:23:02.895Z,83.8
2022-10-09T03:28:13.185Z,83.6
2022-10-09T03:34:02.850Z,83.6
2022-10-09T03:39:02.942Z,83.8
2022-10-09T03:44:13.129Z,82.8
2022-10-09T03:50:02.856Z,85.3
2022-10-09T03:55:13.165Z,85.3
2022-10-09T04:01:02.927Z,84.6
2022-10-09T04:06:13.125Z,84.6
2022-10-09T04:12:02.813Z,84.1
2022-10-09T04:17:13.186Z,84.2
2022-10-09T04:23:02.838Z,83.6
2022-10-09T04:28:13.215Z,83.5
2022-10-09T04:34:02.801Z,83
2022-10-09T04:39:13.065Z,85.5
2022-10-09T04:44:13.091Z,84.6
2022-10-09T04:50:02.789Z,84.5
2022-10-09T04:55:02.860Z,84.3
2022-10-09T05:00:02.938Z,84.3
2022-10-09T05:05:13.117Z,87.8
2022-10-09T05:11:03.039Z,87.5
2022-10-09T05:16:13.112Z,87.5
2022-10-09T05:21:13.124Z,86.5
2022-10-09T05:27:02.797Z,86.7
2022-10-09T05:32:13.142Z,87.5
2022-10-09T05:38:02.847Z,87.5
2022-10-09T05:43:13.055Z,86.6
2022-10-09T05:48:13.077Z,86.5
2022-10-09T05:54:02.799Z,86.2
2022-10-09T05:59:02.894Z,86.4
2022-10-09T06:04:02.873Z,85.8
2022-10-09T06:09:13.156Z,84.3
2022-10-09T06:15:02.757Z,85.2
2022-10-09T06:20:02.818Z,85.5
2022-10-09T06:25:03.212Z,84.6
2022-10-09T06:30:13.031Z,83.5
2022-10-09T06:35:13.082Z,83.8
2022-10-09T06:41:02.904Z,82.8
2022-10-09T06:46:13.332Z,83.4
2022-10-09T06:52:02.940Z,83.6
2022-10-09T06:57:13.177Z,82.1
2022-10-09T07:03:02.861Z,80.8
2022-10-09T07:08:02.829Z,81
2022-10-09T07:13:03.076Z,80.2
2022-10-09T07:18:13.077Z,79.5
2022-10-09T07:23:13.429Z,79.4
2022-10-09T07:28:21.662Z,78.1
2022-10-09T07:34:02.775Z,77.2
2022-10-09T07:39:02.801Z,77.7
2022-10-09T07:44:13.353Z,76.6
2022-10-09T07:49:13.131Z,75.6
2022-10-09T07:55:02.857Z,75
2022-10-09T08:00:02.900Z,75.8
2022-10-09T08:05:13.136Z,74.3
2022-10-09T08:11:02.782Z,73.7
2022-10-09T08:16:02.873Z,72.9
2022-10-09T08:21:02.836Z,73
2022-10-09T08:26:13.082Z,72.9
2022-10-09T08:32:02.939Z,71.5
2022-10-09T08:37:13.092Z,71.7
2022-10-09T08:43:02.851Z,70.7
2022-10-09T08:48:02.868Z,69.7
2022-10-09T08:53:03.067Z,68.6
2022-10-09T08:58:13.081Z,68
2022-10-09T09:04:03.027Z,66.4
2022-10-09T09:09:13.090Z,65.3
2022-10-09T09:14:13.096Z,65
2022-10-09T09:19:13.134Z,65.9
2022-10-09T09:25:02.787Z,63.5
2022-10-09T09:30:02.796Z,63.8
2022-10-09T09:35:13.114Z,62.4
2022-10-09T09:41:03.010Z,61.8
2022-10-09T09:46:13.471Z,60.9
2022-10-09T09:51:28.136Z,60.2
2022-10-09T09:57:21.958Z,59.6
2022-10-09T10:02:13.369Z,60.5
2022-10-09T10:07:13.338Z,58.3
2022-10-09T10:13:03.028Z,58.4
2022-10-09T10:18:13.309Z,57
2022-10-09T10:23:21.352Z,56.4
2022-10-09T10:29:02.997Z,55.1
2022-10-09T10:34:13.295Z,55.4
2022-10-09T10:39:13.332Z,54.5
2022-10-09T10:45:03.007Z,53.3
2022-10-09T10:50:22.319Z,53.5
2022-10-09T10:56:05.325Z,51.4
2022-10-09T11:01:13.197Z,51.9
2022-10-09T11:06:13.094Z,52.6
2022-10-09T11:12:02.856Z,52.1
2022-10-09T11:17:13.095Z,50.1
2022-10-09T11:23:02.795Z,49
2022-10-09T11:28:13.261Z,46.7
2022-10-09T11:34:02.796Z,47.6
2022-10-09T11:39:13.012Z,45.2
2022-10-09T11:44:13.123Z,45.3
2022-10-09T11:49:13.121Z,45.1
2022-10-09T11:55:02.793Z,44.6
2022-10-09T12:00:02.841Z,45.1
2022-10-09T12:05:13.105Z,43.5
2022-10-09T12:10:13.247Z,42.5
2022-10-09T12:16:03.045Z,42.4
2022-10-09T12:21:13.233Z,39.4
2022-10-09T12:26:13.310Z,41.4
2022-10-09T12:32:02.840Z,39.7
2022-10-09T12:37:02.982Z,40.1
2022-10-09T12:42:13.315Z,42.9
2022-10-09T12:48:02.801Z,39.5
2022-10-09T12:53:03.658Z,40.1
2022-10-09T12:58:13.028Z,40.3
2022-10-09T13:03:13.338Z,41.5
2022-10-09T13:09:03.007Z,42.2
2022-10-09T13:14:13.035Z,43.5
2022-10-09T13:19:13.163Z,42.5
2022-10-09T13:24:13.350Z,42.2
2022-10-09T13:29:13.332Z,42.2
2022-10-09T13:35:03.052Z,41.9
2022-10-09T13:40:03.014Z,43.6
2022-10-09T13:45:13.284Z,43.3
2022-10-09T13:50:13.968Z,45.7
2022-10-09T13:56:02.796Z,45.5
2022-10-09T14:01:02.924Z,45.3
2022-10-09T14:06:02.918Z,46
2022-10-09T14:11:03.000Z,46.4
2022-10-09T14:16:03.018Z,46
2022-10-09T14:21:15.295Z,46.7
2022-10-09T14:27:02.985Z,47.3
2022-10-09T14:32:03.010Z,47.6
2022-10-09T14:37:23.839Z,47.1
2022-10-09T14:43:02.785Z,47.2
2022-10-09T14:48:03.043Z,48.9
2022-10-09T14:53:13.356Z,47.6
2022-10-09T14:59:03.057Z,45.7
2022-10-09T15:04:13.344Z,46
2022-10-09T15:09:23.629Z,46.9
2022-10-09T15:15:03.015Z,46.9
2022-10-09T15:20:13.423Z,47.7
2022-10-09T15:26:03.037Z,48.5
2022-10-09T15:31:10.939Z,47.2
2022-10-09T15:36:13.104Z,48.6
2022-10-09T15:41:13.308Z,47.8
2022-10-09T15:46:13.312Z,49.4
2022-10-09T15:51:13.328Z,48.3
2022-10-09T15:57:03.030Z,48.9
2022-10-09T16:02:03.148Z,49.8
2022-10-09T16:07:13.318Z,49.2
2022-10-09T16:13:03.067Z,51.7
2022-10-09T16:18:13.314Z,51
2022-10-09T16:23:13.305Z,53
2022-10-09T16:28:13.416Z,54.9
2022-10-09T16:33:13.316Z,55.7
2022-10-09T16:38:13.323Z,56.3
2022-10-09T16:44:09.401Z,57.1
2022-10-09T16:49:13.295Z,58.7
2022-10-09T16:54:13.314Z,59.5
2022-10-09T17:00:03.017Z,61.6
2022-10-09T17:05:03.021Z,63.2
2022-10-09T17:10:03.119Z,64.6
2022-10-09T17:15:13.347Z,65
2022-10-09T17:20:13.388Z,66.1
2022-10-09T17:26:02.803Z,66
2022-10-09T17:31:02.896Z,65.7
2022-10-09T17:36:13.130Z,65
2022-10-09T17:42:02.877Z,63.4
2022-10-09T17:47:13.162Z,65
2022-10-09T17:52:13.165Z,63.2
2022-10-09T17:58:02.801Z,63.7
2022-10-09T18:03:02.862Z,63.1
2022-10-09T18:08:02.864Z,61.3
2022-10-09T18:13:02.885Z,61.8
2022-10-09T18:18:13.144Z,60.9
2022-10-09T18:24:02.887Z,60.3
2022-10-09T18:29:13.136Z,60.1
2022-10-09T18:34:13.322Z,60.4
2022-10-09T18:39:13.294Z,60.7
2022-10-09T18:44:21.550Z,59.9
2022-10-09T18:50:03.655Z,61.7
2022-10-09T18:55:13.214Z,61.6
2022-10-09T19:00:13.331Z,62.2
2022-10-09T19:05:13.343Z,62
2022-10-09T19:11:03.014Z,62.1
2022-10-09T19:16:03.044Z,62.1
2022-10-09T19:21:13.145Z,61.9
2022-10-09T19:27:02.866Z,61.7
2022-10-09T19:32:03.029Z,61.8
2022-10-09T19:37:13.084Z,62
2022-10-09T19:42:13.383Z,63.3
2022-10-09T19:48:03.805Z,62.8
2022-10-09T19:53:13.140Z,62.5
2022-10-09T19:58:13.145Z,62.2
2022-10-09T20:04:03.099Z,62.6
2022-10-09T20:09:13.359Z,62.5
2022-10-09T20:15:03.058Z,62
2022-10-09T20:20:03.122Z,63
2022-10-09T20:25:13.383Z,62.7
2022-10-09T20:30:13.307Z,62
2022-10-09T20:36:03.085Z,63.7
2022-10-09T20:41:13.330Z,63.8
2022-10-09T20:46:13.375Z,64.7
2022-10-09T20:52:03.059Z,64.6
2022-10-09T20:57:13.347Z,64.7
2022-10-09T21:03:03.014Z,65.2
2022-10-09T21:08:03.034Z,66.1
2022-10-09T21:13:03.061Z,65.5
2022-10-09T21:18:13.338Z,65.3
2022-10-09T21:24:03.022Z,65
2022-10-09T21:29:03.064Z,65.3
2022-10-09T21:34:13.338Z,65.3
2022-10-09T21:40:03.023Z,65.3
2022-10-09T21:45:13.319Z,65.5
2022-10-09T21:50:13.338Z,66.2
2022-10-09T21:55:13.376Z,65.7
2022-10-09T22:01:03.141Z,66
2022-10-09T22:06:03.067Z,66.3
2022-10-09T22:11:13.107Z,66.7
2022-10-09T22:16:13.406Z,66.3
2022-10-09T22:22:02.812Z,66.8
2022-10-09T22:27:02.826Z,67.2
2022-10-09T22:32:03.024Z,67.9
2022-10-09T22:37:03.015Z,67
2022-10-09T22:42:13.312Z,67.6
2022-10-09T22:47:13.340Z,68.3
2022-10-09T22:53:02.753Z,69
2022-10-09T22:58:02.821Z,68.2
2022-10-09T23:03:03.023Z,68
2022-10-09T23:08:03.022Z,68.3
2022-10-09T23:13:13.034Z,67.6
2022-10-09T23:18:13.348Z,67.8
2022-10-09T23:24:02.807Z,68.3
2022-10-09T23:29:02.838Z,67.3
2022-10-09T23:34:13.103Z,67.4
2022-10-09T23:39:13.165Z,68.3
2022-10-09T23:45:02.783Z,69.5
2022-10-09T23:50:02.962Z,70.4
2022-10-09T23:55:13.084Z,71.3
